createdAt,value
2022-08-17T00:00:44.113Z,101144.03
2022-08-17T00:03:18.309Z,101148.59
2022-08-17T00:05:50.920Z,101142.47
2022-08-17T00:08:42.005Z,101129.22
2022-08-17T00:11:17.362Z,101130.16
2022-08-17T00:13:51.530Z,101129.31
2022-08-17T00:16:55.313Z,101131.09
2022-08-17T00:19:23.067Z,101130.28
2022-08-17T00:22:31.864Z,101124.97
2022-08-17T00:24:44.759Z,101124.97
2022-08-17T00:27:13.253Z,101128.53
2022-08-17T00:29:42.257Z,101123.16
2022-08-17T00:33:14.350Z,101127.66
2022-08-17T00:34:59.329Z,101122.38
2022-08-17T00:37:27.669Z,101116.19
2022-08-17T00:39:56.199Z,101117.09
2022-08-17T00:42:28.857Z,101113.59
2022-08-17T00:44:59.356Z,101119.88
2022-08-17T00:47:30.150Z,101122.63
2022-08-17T00:49:58.784Z,101123.63
2022-08-17T00:52:35.422Z,101137.94
2022-08-17T00:55:06.179Z,101133.63
2022-08-17T00:57:45.053Z,101151.53
2022-08-17T01:00:21.399Z,101140.03
2022-08-17T01:02:49.892Z,101148.97
2022-08-17T01:05:25.449Z,101139.22
2022-08-17T01:07:55.159Z,101138.34
2022-08-17T01:11:00.083Z,101135.69
2022-08-17T01:13:20.910Z,101129.50
2022-08-17T01:15:57.833Z,101125.97
2022-08-17T01:18:27.410Z,101113.47
2022-08-17T01:21:01.839Z,101120.53
2022-08-17T01:23:30.946Z,101102.75
2022-08-17T01:26:02.772Z,101106.34
2022-08-17T01:28:54.437Z,101107.38
2022-08-17T01:31:25.463Z,101111.88
2022-08-17T01:33:54.569Z,101098.53
2022-08-17T01:36:23.821Z,101113.75
2022-08-17T01:38:52.200Z,101114.72
2022-08-17T01:41:22.708Z,101111.16
2022-08-17T01:43:59.525Z,101115.75
2022-08-17T01:46:32.153Z,101117.53
2022-08-17T01:49:01.660Z,101122.94
2022-08-17T01:51:32.913Z,101115.91
2022-08-17T01:54:08.523Z,101105.38
2022-08-17T01:56:43.825Z,101122.31
2022-08-17T01:59:18.366Z,101118.78
2022-08-17T02:01:47.082Z,101119.75
2022-08-17T02:04:15.639Z,101124.16
2022-08-17T02:06:53.553Z,101121.50
2022-08-17T02:09:29.809Z,101121.50
2022-08-17T02:12:37.733Z,101119.72
2022-08-17T02:14:48.981Z,101112.59
2022-08-17T02:17:17.861Z,101114.41
2022-08-17T02:19:46.237Z,101106.44
2022-08-17T02:22:18.269Z,101112.78
2022-08-17T02:25:00.419Z,101117.31
2022-08-17T02:27:30.957Z,101121.75
2022-08-17T02:29:59.334Z,101133.41
2022-08-17T02:32:28.755Z,101130.75
2022-08-17T02:34:58.504Z,101121.00
2022-08-17T02:37:28.977Z,101125.47
2022-08-17T02:39:58.556Z,101127.31
2022-08-17T02:42:33.923Z,101129.16
2022-08-17T02:45:05.252Z,101123.81
2022-08-17T02:47:34.324Z,101119.31
2022-08-17T02:50:04.002Z,101120.22
2022-08-17T02:52:41.954Z,101119.41
2022-08-17T02:55:25.081Z,101122.13
2022-08-17T02:57:53.951Z,101127.50
2022-08-17T03:00:25.876Z,101119.53
2022-08-17T03:02:56.514Z,101126.66
2022-08-17T03:05:28.245Z,101128.44
2022-08-17T03:07:57.429Z,101117.81
2022-08-17T03:10:26.908Z,101124.88
2022-08-17T03:12:55.722Z,101117.75
2022-08-17T03:15:27.553Z,101127.50
2022-08-17T03:17:57.216Z,101122.16
2022-08-17T03:20:27.317Z,101125.78
2022-08-17T03:23:02.009Z,101119.56
2022-08-17T03:25:35.952Z,101112.53
2022-08-17T03:28:06.823Z,101114.34
2022-08-17T03:30:36.605Z,101113.47
2022-08-17T03:33:07.295Z,101109.91
2022-08-17T03:35:37.638Z,101115.25
2022-08-17T03:38:07.537Z,101112.59
2022-08-17T03:40:56.568Z,101118.84
2022-08-17T03:43:25.503Z,101113.50
2022-08-17T03:46:28.453Z,101109.06
2022-08-17T03:49:22.923Z,101099.31
2022-08-17T03:52:10.316Z,101098.41
2022-08-17T03:54:58.111Z,101099.34
2022-08-17T03:57:26.870Z,101107.41
2022-08-17T03:59:56.044Z,101100.25
2022-08-17T04:02:29.458Z,101104.78
2022-08-17T04:04:58.423Z,101104.81
2022-08-17T04:07:30.006Z,101100.31
2022-08-17T04:09:59.530Z,101096.72
2022-08-17T04:12:31.141Z,101113.63
2022-08-17T04:14:59.873Z,101111.84
2022-08-17T04:17:31.197Z,101118.09
2022-08-17T04:19:59.578Z,101113.66
2022-08-17T04:22:30.152Z,101116.31
2022-08-17T04:25:24.206Z,101126.19
2022-08-17T04:27:52.350Z,101128.94
2022-08-17T04:30:20.923Z,101136.09
2022-08-17T04:33:03.746Z,101136.19
2022-08-17T04:35:48.253Z,101128.25
2022-08-17T04:38:20.198Z,101128.34
2022-08-17T04:41:07.979Z,101126.66
2022-08-17T04:43:39.785Z,101134.72
2022-08-17T04:46:11.167Z,101125.81
2022-08-17T04:48:43.148Z,101132.06
2022-08-17T04:51:16.883Z,101138.31
2022-08-17T04:53:54.489Z,101134.72
2022-08-17T04:56:25.935Z,101137.28
2022-08-17T04:58:58.145Z,101140.78
2022-08-17T05:01:29.245Z,101147.03
2022-08-17T05:03:59.855Z,101141.63
2022-08-17T05:06:30.753Z,101136.25
2022-08-17T05:08:59.946Z,101134.47
2022-08-17T05:11:30.089Z,101144.19
2022-08-17T05:13:58.907Z,101145.88
2022-08-17T05:16:28.698Z,101140.56
2022-08-17T05:18:58.648Z,101144.88
2022-08-17T05:21:27.522Z,101139.47
2022-08-17T05:23:58.563Z,101146.50
2022-08-17T05:26:29.332Z,101143.78
2022-08-17T05:29:03.001Z,101145.56
2022-08-17T05:31:31.497Z,101142.00
2022-08-17T05:34:02.281Z,101148.25
2022-08-17T05:36:41.764Z,101142.78
2022-08-17T05:39:16.277Z,101151.63
2022-08-17T05:41:47.726Z,101145.41
2022-08-17T05:44:17.145Z,101148.06
2022-08-17T05:46:51.930Z,101157.84
2022-08-17T05:49:27.685Z,101152.44
2022-08-17T05:52:23.529Z,101163.06
2022-08-17T05:55:32.774Z,101165.72
2022-08-17T05:58:13.170Z,101178.25
2022-08-17T06:01:03.219Z,101181.78
2022-08-17T06:03:43.353Z,101179.09
2022-08-17T06:06:31.319Z,101171.97
2022-08-17T06:09:24.807Z,101171.06
2022-08-17T06:12:21.453Z,101174.59
2022-08-17T06:15:04.181Z,101174.63
2022-08-17T06:17:33.942Z,101180.88
2022-08-17T06:20:08.399Z,101181.78
2022-08-17T06:22:44.742Z,101182.59
2022-08-17T06:25:38.108Z,101183.44
2022-08-17T06:28:14.231Z,101179.81
2022-08-17T06:31:01.114Z,101188.69
2022-08-17T06:33:36.880Z,101181.53
2022-08-17T06:36:30.149Z,101191.25
2022-08-17T06:39:31.497Z,101189.47
2022-08-17T06:43:04.981Z,101196.59
2022-08-17T06:45:20.285Z,101200.19
2022-08-17T06:48:26.017Z,101203.69
2022-08-17T06:51:00.025Z,101211.63
2022-08-17T06:53:34.813Z,101215.06
2022-08-17T06:56:13.566Z,101209.63
2022-08-17T06:58:44.876Z,101214.00
2022-08-17T07:01:24.895Z,101212.25
2022-08-17T07:03:59.433Z,101212.16
2022-08-17T07:06:38.487Z,101212.09
2022-08-17T07:09:15.827Z,101214.78
2022-08-17T07:11:52.903Z,101215.66
2022-08-17T07:14:43.334Z,101218.38
2022-08-17T07:17:15.657Z,101220.22
2022-08-17T07:19:46.847Z,101214.97
2022-08-17T07:22:59.557Z,101206.06
2022-08-17T07:25:33.921Z,101190.03
2022-08-17T07:28:07.437Z,101202.44
2022-08-17T07:30:46.892Z,101215.75
2022-08-17T07:33:20.493Z,101225.50
2022-08-17T07:35:50.946Z,101205.06
2022-08-17T07:38:33.311Z,101192.56
2022-08-17T07:41:06.806Z,101189.03
2022-08-17T07:43:41.187Z,101205.84
2022-08-17T07:46:52.800Z,101203.22
2022-08-17T07:49:31.690Z,101211.28
2022-08-17T07:52:50.843Z,101221.22
2022-08-17T07:55:35.009Z,101215.22
2022-08-17T07:58:03.614Z,101225.13
2022-08-17T08:00:33.662Z,101233.28
2022-08-17T08:03:15.517Z,101233.34
2022-08-17T08:06:00.794Z,101229.88
2022-08-17T08:08:42.818Z,101214.78
2022-08-17T08:11:27.963Z,101216.50
2022-08-17T08:14:29.322Z,101217.38
2022-08-17T08:17:05.872Z,101209.28
2022-08-17T08:19:34.329Z,101195.94
2022-08-17T08:22:11.197Z,101189.63
2022-08-17T08:24:55.586Z,101189.69
2022-08-17T08:27:27.286Z,101188.75
2022-08-17T08:30:02.955Z,101187.88
2022-08-17T08:32:50.302Z,101208.28
2022-08-17T08:35:44.495Z,101212.69
2022-08-17T08:38:44.346Z,101218.75
2022-08-17T08:41:55.390Z,101221.28
2022-08-17T08:45:00.282Z,101231.78
2022-08-17T08:48:05.099Z,101225.41
2022-08-17T08:50:37.911Z,101219.84
2022-08-17T08:53:30.432Z,101228.72
2022-08-17T08:56:16.565Z,101217.94
2022-08-17T08:59:10.669Z,101227.69
2022-08-17T09:01:41.917Z,101233.84
2022-08-17T09:05:10.601Z,101232.81
2022-08-17T09:07:42.364Z,101231.75
2022-08-17T09:10:27.035Z,101237.84
2022-08-17T09:13:22.121Z,101244.88
2022-08-17T09:16:15.328Z,101242.00
2022-08-17T09:19:01.393Z,101235.69
2022-08-17T09:21:48.735Z,101240.09
2022-08-17T09:24:28.488Z,101240.91
2022-08-17T09:27:15.157Z,101239.81
2022-08-17T09:29:54.324Z,101251.13
2022-08-17T09:32:39.406Z,101243.78
2022-08-17T09:35:20.748Z,101247.06
2022-08-17T09:38:10.251Z,101243.09
2022-08-17T09:41:01.643Z,101237.13
2022-08-17T09:44:23.382Z,101229.31
2022-08-17T09:47:10.344Z,101242.13
2022-08-17T09:49:49.352Z,101242.50
2022-08-17T09:52:24.963Z,101240.06
2022-08-17T09:54:55.919Z,101234.97
2022-08-17T09:57:59.034Z,101241.75
2022-08-17T10:00:35.654Z,101240.59
2022-08-17T10:05:59.903Z,101242.78
2022-08-17T10:09:08.305Z,101239.13
2022-08-17T10:12:02.466Z,101241.91
2022-08-17T10:14:44.187Z,101247.38
2022-08-17T10:17:13.841Z,101241.41
2022-08-17T10:20:05.975Z,101241.25
2022-08-17T10:23:07.629Z,101246.72
2022-08-17T10:26:01.191Z,101239.69
2022-08-17T10:28:39.062Z,101245.00
2022-08-17T10:31:33.838Z,101241.22
2022-08-17T10:34:42.028Z,101248.81
2022-08-17T10:37:19.639Z,101241.03
2022-08-17T10:40:12.111Z,101243.13
2022-08-17T10:42:55.197Z,101236.34
2022-08-17T10:45:35.009Z,101233.28
2022-08-17T10:48:07.197Z,101240.22
2022-08-17T10:50:56.183Z,101241.81
2022-08-17T10:53:48.597Z,101243.69
2022-08-17T10:56:23.490Z,101238.66
2022-08-17T10:58:59.570Z,101234.34
2022-08-17T11:01:49.520Z,101235.09
2022-08-17T11:04:18.027Z,101236.88
2022-08-17T11:07:16.436Z,101236.91
2022-08-17T11:10:03.624Z,101228.81
2022-08-17T11:12:38.089Z,101225.22
2022-08-17T11:15:31.499Z,101230.84
2022-08-17T11:18:12.157Z,101229.13
2022-08-17T11:21:17.431Z,101232.16
2022-08-17T11:23:45.681Z,101217.84
2022-08-17T11:26:29.711Z,101227.84
2022-08-17T11:29:05.189Z,101228.84
2022-08-17T11:31:44.863Z,101220.03
2022-08-17T11:34:26.237Z,101220.03
2022-08-17T11:37:03.784Z,101220.78
2022-08-17T11:40:06.935Z,101211.72
2022-08-17T11:43:09.579Z,101215.31
2022-08-17T11:45:53.736Z,101218.00
2022-08-17T11:48:55.884Z,101219.59
2022-08-17T11:51:55.811Z,101219.41
2022-08-17T11:54:33.333Z,101221.97
2022-08-17T11:57:25.790Z,101234.03
2022-08-17T12:00:36.268Z,101225.41
2022-08-17T12:03:34.560Z,101225.44
2022-08-17T12:06:17.685Z,101217.00
2022-08-17T12:08:55.212Z,101217.41
2022-08-17T12:11:58.767Z,101220.78
2022-08-17T12:14:45.492Z,101215.41
2022-08-17T12:17:39.217Z,101218.91
2022-08-17T12:20:32.422Z,101216.44
2022-08-17T12:23:15.818Z,101213.75
2022-08-17T12:26:17.574Z,101219.97
2022-08-17T12:28:50.470Z,101208.47
2022-08-17T12:31:27.192Z,101205.06
2022-08-17T12:33:56.195Z,101209.75
2022-08-17T12:36:28.247Z,101209.19
2022-08-17T12:39:12.835Z,101204.88
2022-08-17T12:41:50.349Z,101208.72
2022-08-17T12:44:31.714Z,101197.09
2022-08-17T12:47:04.549Z,101205.97
2022-08-17T12:49:38.463Z,101201.72
2022-08-17T12:52:19.919Z,101200.09
2022-08-17T12:54:54.138Z,101202.78
2022-08-17T12:57:25.949Z,101193.66
2022-08-17T12:59:58.929Z,101197.16
2022-08-17T13:02:32.810Z,101210.53
2022-08-17T13:05:02.155Z,101196.34
2022-08-17T13:07:42.604Z,101204.34
2022-08-17T13:10:16.292Z,101193.78
2022-08-17T13:12:44.724Z,101198.34
2022-08-17T13:15:20.543Z,101203.94
2022-08-17T13:17:59.497Z,101193.31
2022-08-17T13:20:27.952Z,101192.56
2022-08-17T13:22:59.844Z,101199.75
2022-08-17T13:25:29.832Z,101190.63
2022-08-17T13:27:58.803Z,101201.34
2022-08-17T13:30:32.880Z,101186.97
2022-08-17T13:33:04.705Z,101179.66
2022-08-17T13:35:50.250Z,101185.78
2022-08-17T13:38:41.365Z,101180.34
2022-08-17T13:41:29.829Z,101177.59
2022-08-17T13:43:58.093Z,101187.53
2022-08-17T13:46:32.688Z,101178.53
2022-08-17T13:49:12.227Z,101183.09
2022-08-17T13:51:46.397Z,101181.31
2022-08-17T13:54:27.085Z,101175.03
2022-08-17T13:57:21.806Z,101174.97
2022-08-17T13:59:58.170Z,101173.03
2022-08-17T14:02:28.913Z,101170.34
2022-08-17T14:04:58.987Z,101167.53
2022-08-17T14:07:33.862Z,101165.56
2022-08-17T14:10:29.865Z,101166.19
2022-08-17T14:12:58.271Z,101166.00
2022-08-17T14:15:54.912Z,101163.06
2022-08-17T14:18:18.981Z,101163.53
2022-08-17T14:21:08.748Z,101165.59
2022-08-17T14:23:37.615Z,101163.28
2022-08-17T14:26:06.008Z,101161.25
2022-08-17T14:28:36.390Z,101170.25
2022-08-17T14:31:08.417Z,101174.19
2022-08-17T14:33:37.375Z,101173.59
2022-08-17T14:36:09.801Z,101168.50
2022-08-17T14:38:41.873Z,101171.47
2022-08-17T14:41:11.185Z,101164.44
2022-08-17T14:43:39.956Z,101162.09
2022-08-17T14:46:08.271Z,101154.38
2022-08-17T14:48:38.680Z,101155.56
2022-08-17T14:51:07.209Z,101152.41
2022-08-17T14:53:36.647Z,101157.31
2022-08-17T14:56:08.968Z,101163.06
2022-08-17T14:58:39.007Z,101155.38
2022-08-17T15:01:12.484Z,101156.66
2022-08-17T15:03:42.035Z,101157.81
2022-08-17T15:06:14.650Z,101143.00
2022-08-17T15:08:44.763Z,101149.44
2022-08-17T15:11:14.758Z,101147.81
2022-08-17T15:13:52.904Z,101139.09
2022-08-17T15:16:22.291Z,101145.47
2022-08-17T15:18:52.651Z,101131.44
2022-08-17T15:21:22.297Z,101124.41
2022-08-17T15:23:53.429Z,101128.31
2022-08-17T15:26:26.209Z,101112.47
2022-08-17T15:28:56.693Z,101120.78
2022-08-17T15:31:31.970Z,101128.97
2022-08-17T15:34:00.906Z,101123.81
2022-08-17T15:36:29.254Z,101124.78
2022-08-17T15:38:59.508Z,101118.59
2022-08-17T15:41:28.405Z,101132.97
2022-08-17T15:43:57.077Z,101122.34
2022-08-17T15:46:26.302Z,101117.91
2022-08-17T15:49:00.277Z,101109.97
2022-08-17T15:51:34.972Z,101108.34
2022-08-17T15:54:19.241Z,101125.59
2022-08-17T15:56:50.989Z,101125.81
2022-08-17T15:59:19.457Z,101106.31
2022-08-17T16:03:15.302Z,101108.19
2022-08-17T16:04:40.247Z,101109.25
2022-08-17T16:07:13.444Z,101118.34
2022-08-17T16:09:42.372Z,101105.94
2022-08-17T16:12:14.373Z,101104.13
2022-08-17T16:14:43.740Z,101094.31
2022-08-17T16:17:40.080Z,101101.69
2022-08-17T16:20:02.228Z,101109.88
2022-08-17T16:22:39.390Z,101110.88
2022-08-17T16:25:15.071Z,101128.81
2022-08-17T16:27:44.390Z,101173.59
2022-08-17T16:30:17.600Z,101239.81
2022-08-17T16:32:47.412Z,101250.06
2022-08-17T16:35:20.503Z,101205.03
2022-08-17T16:37:49.006Z,101208.91
2022-08-17T16:40:17.533Z,101238.56
2022-08-17T16:42:48.481Z,101232.34
2022-08-17T16:45:23.582Z,101226.72
2022-08-17T16:47:55.163Z,101205.78
2022-08-17T16:50:24.054Z,101189.91
2022-08-17T16:52:52.666Z,101183.84
2022-08-17T16:55:22.662Z,101170.38
2022-08-17T16:57:51.061Z,101163.38
2022-08-17T17:00:20.947Z,101166.06
2022-08-17T17:02:49.770Z,101159.72
2022-08-17T17:05:33.395Z,101156.13
2022-08-17T17:08:09.348Z,101149.81
2022-08-17T17:10:37.750Z,101165.00
2022-08-17T17:13:16.909Z,101152.66
2022-08-17T17:16:06.433Z,101140.34
2022-08-17T17:19:35.115Z,101134.22
2022-08-17T17:22:13.431Z,101140.56
2022-08-17T17:24:50.384Z,101148.69
2022-08-17T17:27:29.621Z,101151.41
2022-08-17T17:30:03.971Z,101147.00
2022-08-17T17:32:38.078Z,101163.06
2022-08-17T17:35:38.017Z,101153.34
2022-08-17T17:38:15.297Z,101155.13
2022-08-17T17:40:50.942Z,101155.94
2022-08-17T17:43:39.045Z,101146.06
2022-08-17T17:46:27.895Z,101151.28
2022-08-17T17:49:01.410Z,101155.72
2022-08-17T17:52:06.302Z,101164.72
2022-08-17T17:54:40.278Z,101168.34
2022-08-17T17:57:37.211Z,101172.91
2022-08-17T18:00:11.680Z,101172.91
2022-08-17T18:03:05.138Z,101173.78
2022-08-17T18:05:36.750Z,101163.06
2022-08-17T18:08:11.913Z,101158.56
2022-08-17T18:10:48.921Z,101162.94
2022-08-17T18:13:29.702Z,101152.19
2022-08-17T18:16:01.063Z,101152.06
2022-08-17T18:18:38.259Z,101144.91
2022-08-17T18:21:20.724Z,101148.34
2022-08-17T18:24:00.985Z,101137.59
2022-08-17T18:26:37.837Z,101133.09
2022-08-17T18:29:28.087Z,101148.16
2022-08-17T18:32:32.416Z,101139.31
2022-08-17T18:35:27.829Z,101144.66
2022-08-17T18:38:20.638Z,101157.13
2022-08-17T18:41:21.840Z,101152.66
2022-08-17T18:44:22.255Z,101155.28
2022-08-17T18:47:28.630Z,101148.00
2022-08-17T18:50:28.073Z,101151.63
2022-08-17T18:53:30.346Z,101145.44
2022-08-17T18:56:20.663Z,101143.63
2022-08-17T18:59:00.680Z,101143.69
2022-08-17T19:01:53.555Z,101159.72
2022-08-17T19:04:36.589Z,101159.09
2022-08-17T19:07:07.334Z,101169.94
2022-08-17T19:09:42.758Z,101162.06
2022-08-17T19:12:26.963Z,101162.13
2022-08-17T19:14:58.513Z,101157.84
2022-08-17T19:17:42.178Z,101158.69
2022-08-17T19:20:14.546Z,101162.28
2022-08-17T19:22:56.443Z,101163.94
2022-08-17T19:25:30.670Z,101173.59
2022-08-17T19:28:22.630Z,101174.34
2022-08-17T19:30:57.737Z,101172.44
2022-08-17T19:33:32.837Z,101171.41
2022-08-17T19:36:11.876Z,101169.69
2022-08-17T19:39:04.574Z,101164.34
2022-08-17T19:42:05.538Z,101153.72
2022-08-17T19:44:48.808Z,101150.22
2022-08-17T19:47:54.753Z,101156.50
2022-08-17T19:50:39.217Z,101150.25
2022-08-17T19:54:01.705Z,101160.94
2022-08-17T19:56:44.691Z,101150.25
2022-08-17T19:59:22.056Z,101161.81
2022-08-17T20:02:03.063Z,101177.81
2022-08-17T20:04:42.627Z,101177.84
2022-08-17T20:07:20.288Z,101179.63
2022-08-17T20:10:03.764Z,101182.31
2022-08-17T20:12:38.640Z,101182.31
2022-08-17T20:15:22.121Z,101172.53
2022-08-17T20:17:50.999Z,101176.06
2022-08-17T20:20:38.320Z,101189.38
2022-08-17T20:23:31.163Z,101191.13
2022-08-17T20:26:34.880Z,101201.81
2022-08-17T20:29:14.358Z,101204.53
2022-08-17T20:31:54.629Z,101221.44
2022-08-17T20:34:36.685Z,101231.25
2022-08-17T20:37:15.438Z,101227.75
2022-08-17T20:40:07.848Z,101232.25
2022-08-17T20:42:37.016Z,101227.78
2022-08-17T20:45:20.710Z,101230.47
2022-08-17T20:48:18.506Z,101221.63
2022-08-17T20:50:47.389Z,101227.00
2022-08-17T20:53:47.623Z,101228.84
2022-08-17T20:56:43.884Z,101225.31
2022-08-17T20:59:40.160Z,101235.03
2022-08-17T21:02:18.388Z,101232.34
2022-08-17T21:04:50.394Z,101248.34
2022-08-17T21:07:41.144Z,101245.66
2022-08-17T21:10:21.241Z,101250.13
2022-08-17T21:13:02.736Z,101242.06
2022-08-17T21:15:51.792Z,101235.81
2022-08-17T21:18:29.094Z,101231.38
2022-08-17T21:21:17.730Z,101241.19
2022-08-17T21:24:14.692Z,101243.91
2022-08-17T21:27:01.901Z,101258.16
2022-08-17T21:29:33.936Z,101256.41
2022-08-17T21:32:09.468Z,101271.50
2022-08-17T21:34:43.233Z,101265.22
2022-08-17T21:37:23.800Z,101265.16
2022-08-17T21:39:54.710Z,101248.28
2022-08-17T21:42:25.131Z,101252.75
2022-08-17T21:44:58.088Z,101260.81
2022-08-17T21:47:29.544Z,101275.91
2022-08-17T21:50:18.726Z,101281.38
2022-08-17T21:52:48.933Z,101263.66
2022-08-17T21:55:22.017Z,101268.19
2022-08-17T21:57:53.250Z,101271.78
2022-08-17T22:00:39.300Z,101275.47
2022-08-17T22:03:23.455Z,101275.56
2022-08-17T22:05:51.915Z,101288.13
2022-08-17T22:08:24.001Z,101301.59
2022-08-17T22:11:02.356Z,101305.22
2022-08-17T22:13:30.724Z,101295.44
2022-08-17T22:16:15.454Z,101283.94
2022-08-17T22:18:58.791Z,101265.38
2022-08-17T22:21:27.180Z,101255.69
2022-08-17T22:24:22.744Z,101268.19
2022-08-17T22:27:12.874Z,101262.06
2022-08-17T22:29:57.900Z,101261.31
2022-08-17T22:32:43.809Z,101261.41
2022-08-17T22:35:26.690Z,101260.56
2022-08-17T22:37:57.041Z,101260.56
2022-08-17T22:40:31.168Z,101262.34
2022-08-17T22:43:01.649Z,101253.41
2022-08-17T22:45:30.420Z,101255.19
2022-08-17T22:48:00.968Z,101249.84
2022-08-17T22:50:31.371Z,101242.72
2022-08-17T22:53:43.009Z,101242.72
2022-08-17T22:56:37.107Z,101233.03
2022-08-17T22:59:20.728Z,101235.81
2022-08-17T23:02:13.687Z,101234.16
2022-08-17T23:04:57.499Z,101247.59
2022-08-17T23:07:26.002Z,101247.59
2022-08-17T23:09:54.902Z,101252.91
2022-08-17T23:12:26.539Z,101242.22
2022-08-17T23:15:00.933Z,101250.16
2022-08-17T23:17:36.941Z,101251.00
2022-08-17T23:20:24.369Z,101250.94
2022-08-17T23:23:19.644Z,101253.56
2022-08-17T23:25:50.244Z,101258.84
2022-08-17T23:28:18.627Z,101260.56
2022-08-17T23:30:48.898Z,101260.50
2022-08-17T23:33:29.992Z,101265.72
2022-08-17T23:36:02.361Z,101270.13
2022-08-17T23:38:32.906Z,101254.94
2022-08-17T23:41:02.755Z,101247.81
2022-08-17T23:43:31.769Z,101244.19
2022-08-17T23:46:00.751Z,101241.44
2022-08-17T23:48:35.877Z,101239.63
2022-08-17T23:51:10.776Z,101234.19
2022-08-17T23:53:44.740Z,101233.31
2022-08-17T23:56:14.081Z,101240.38
2022-08-17T23:58:44.728Z,101233.28
